sensor_id;sensor_type;location;lat;lon;timestamp;P1;durP1;ratioP1;P2;durP2;ratioP2
17404;SDS011;8820;54.604;18.226;2022-12-07T00:01:43;22.17;;;13.27;;
17404;SDS011;8820;54.604;18.226;2022-12-07T00:04:13;19.97;;;12.87;;
17404;SDS011;8820;54.604;18.226;2022-12-07T00:06:43;20.87;;;11.67;;
17404;SDS011;8820;54.604;18.226;2022-12-07T00:09:16;24.60;;;13.47;;
17404;SDS011;8820;54.604;18.226;2022-12-07T00:11:47;21.43;;;13.27;;
17404;SDS011;8820;54.604;18.226;2022-12-07T00:14:17;21.40;;;12.40;;
17404;SDS011;8820;54.604;18.226;2022-12-07T00:16:48;20.90;;;11.87;;
17404;SDS011;8820;54.604;18.226;2022-12-07T00:19:17;18.50;;;11.80;;
17404;SDS011;8820;54.604;18.226;2022-12-07T00:21:46;19.13;;;11.43;;
17404;SDS011;8820;54.604;18.226;2022-12-07T00:24:16;19.83;;;11.87;;
17404;SDS011;8820;54.604;18.226;2022-12-07T00:26:44;18.83;;;11.77;;
17404;SDS011;8820;54.604;18.226;2022-12-07T00:29:14;21.37;;;12.70;;
17404;SDS011;8820;54.604;18.226;2022-12-07T00:31:44;17.83;;;11.70;;
17404;SDS011;8820;54.604;18.226;2022-12-07T00:34:13;20.33;;;12.83;;
17404;SDS011;8820;54.604;18.226;2022-12-07T00:36:43;19.13;;;11.73;;
17404;SDS011;8820;54.604;18.226;2022-12-07T00:39:11;20.07;;;11.40;;
17404;SDS011;8820;54.604;18.226;2022-12-07T00:41:42;22.37;;;12.33;;
17404;SDS011;8820;54.604;18.226;2022-12-07T00:44:10;20.27;;;12.00;;
17404;SDS011;8820;54.604;18.226;2022-12-07T00:46:39;18.27;;;11.33;;
17404;SDS011;8820;54.604;18.226;2022-12-07T00:49:07;22.70;;;11.77;;
17404;SDS011;8820;54.604;18.226;2022-12-07T00:51:36;19.97;;;12.10;;
17404;SDS011;8820;54.604;18.226;2022-12-07T00:54:04;20.33;;;11.53;;
17404;SDS011;8820;54.604;18.226;2022-12-07T00:56:33;20.53;;;12.87;;
17404;SDS011;8820;54.604;18.226;2022-12-07T00:59:03;18.10;;;11.77;;
17404;SDS011;8820;54.604;18.226;2022-12-07T01:01:32;19.43;;;11.53;;
17404;SDS011;8820;54.604;18.226;2022-12-07T01:04:03;17.90;;;11.40;;
17404;SDS011;8820;54.604;18.226;2022-12-07T01:06:32;17.47;;;11.63;;
17404;SDS011;8820;54.604;18.226;2022-12-07T01:09:00;18.40;;;11.13;;
17404;SDS011;8820;54.604;18.226;2022-12-07T01:11:31;18.43;;;11.10;;
17404;SDS011;8820;54.604;18.226;2022-12-07T01:14:00;20.40;;;11.70;;
17404;SDS011;8820;54.604;18.226;2022-12-07T01:16:30;15.70;;;11.17;;
17404;SDS011;8820;54.604;18.226;2022-12-07T01:19:00;22.03;;;12.53;;
17404;SDS011;8820;54.604;18.226;2022-12-07T01:21:32;21.80;;;11.47;;
17404;SDS011;8820;54.604;18.226;2022-12-07T01:24:04;18.63;;;10.93;;
17404;SDS011;8820;54.604;18.226;2022-12-07T01:26:35;18.43;;;10.90;;
17404;SDS011;8820;54.604;18.226;2022-12-07T01:29:03;15.43;;;10.13;;
17404;SDS011;8820;54.604;18.226;2022-12-07T01:31:33;18.10;;;10.27;;
17404;SDS011;8820;54.604;18.226;2022-12-07T01:34:02;17.40;;;10.73;;
17404;SDS011;8820;54.604;18.226;2022-12-07T01:36:31;17.57;;;10.30;;
17404;SDS011;8820;54.604;18.226;2022-12-07T01:39:03;17.40;;;10.97;;
17404;SDS011;8820;54.604;18.226;2022-12-07T01:41:35;18.63;;;10.20;;
17404;SDS011;8820;54.604;18.226;2022-12-07T01:46:55;18.13;;;10.90;;
17404;SDS011;8820;54.604;18.226;2022-12-07T01:49:26;17.33;;;10.90;;
17404;SDS011;8820;54.604;18.226;2022-12-07T01:52:00;17.47;;;11.20;;
17404;SDS011;8820;54.604;18.226;2022-12-07T01:54:34;20.23;;;11.13;;
17404;SDS011;8820;54.604;18.226;2022-12-07T01:57:03;20.17;;;10.53;;
17404;SDS011;8820;54.604;18.226;2022-12-07T01:59:34;17.03;;;10.67;;
17404;SDS011;8820;54.604;18.226;2022-12-07T02:02:05;18.67;;;9.73;;
17404;SDS011;8820;54.604;18.226;2022-12-07T02:04:41;17.63;;;10.73;;
17404;SDS011;8820;54.604;18.226;2022-12-07T02:07:09;16.87;;;10.80;;
17404;SDS011;8820;54.604;18.226;2022-12-07T02:09:38;17.80;;;10.87;;
17404;SDS011;8820;54.604;18.226;2022-12-07T02:12:07;38.37;;;22.83;;
17404;SDS011;8820;54.604;18.226;2022-12-07T02:14:36;17.27;;;10.83;;
17404;SDS011;8820;54.604;18.226;2022-12-07T02:17:10;20.30;;;10.83;;
17404;SDS011;8820;54.604;18.226;2022-12-07T02:19:53;19.63;;;11.97;;
17404;SDS011;8820;54.604;18.226;2022-12-07T02:22:39;20.07;;;10.17;;
17404;SDS011;8820;54.604;18.226;2022-12-07T02:25:36;19.80;;;10.83;;
17404;SDS011;8820;54.604;18.226;2022-12-07T02:28:21;16.20;;;11.00;;
17404;SDS011;8820;54.604;18.226;2022-12-07T02:31:01;20.63;;;10.97;;
17404;SDS011;8820;54.604;18.226;2022-12-07T02:33:36;19.17;;;11.37;;
17404;SDS011;8820;54.604;18.226;2022-12-07T02:36:10;18.80;;;11.37;;
17404;SDS011;8820;54.604;18.226;2022-12-07T02:38:44;20.73;;;11.33;;
17404;SDS011;8820;54.604;18.226;2022-12-07T02:41:19;18.50;;;11.57;;
17404;SDS011;8820;54.604;18.226;2022-12-07T02:43:53;17.00;;;10.47;;
17404;SDS011;8820;54.604;18.226;2022-12-07T02:46:26;17.10;;;10.37;;
17404;SDS011;8820;54.604;18.226;2022-12-07T02:48:57;17.23;;;10.17;;
17404;SDS011;8820;54.604;18.226;2022-12-07T02:51:29;16.73;;;10.87;;
17404;SDS011;8820;54.604;18.226;2022-12-07T02:53:58;15.17;;;10.10;;
17404;SDS011;8820;54.604;18.226;2022-12-07T02:56:30;16.00;;;9.87;;
17404;SDS011;8820;54.604;18.226;2022-12-07T02:59:07;13.17;;;9.53;;
17404;SDS011;8820;54.604;18.226;2022-12-07T03:01:48;13.30;;;9.80;;
17404;SDS011;8820;54.604;18.226;2022-12-07T03:04:33;12.77;;;9.17;;
17404;SDS011;8820;54.604;18.226;2022-12-07T03:07:16;14.37;;;8.97;;
17404;SDS011;8820;54.604;18.226;2022-12-07T03:09:53;15.10;;;9.63;;
17404;SDS011;8820;54.604;18.226;2022-12-07T03:12:29;12.07;;;8.80;;
17404;SDS011;8820;54.604;18.226;2022-12-07T03:15:04;13.70;;;8.40;;
17404;SDS011;8820;54.604;18.226;2022-12-07T03:17:38;11.00;;;9.23;;
17404;SDS011;8820;54.604;18.226;2022-12-07T03:20:11;15.87;;;9.10;;
17404;SDS011;8820;54.604;18.226;2022-12-07T03:22:42;13.43;;;8.83;;
17404;SDS011;8820;54.604;18.226;2022-12-07T03:25:15;12.63;;;9.17;;
17404;SDS011;8820;54.604;18.226;2022-12-07T03:27:46;12.40;;;9.00;;
17404;SDS011;8820;54.604;18.226;2022-12-07T03:30:22;11.97;;;8.70;;
17404;SDS011;8820;54.604;18.226;2022-12-07T03:32:57;13.43;;;8.67;;
17404;SDS011;8820;54.604;18.226;2022-12-07T03:35:31;10.97;;;8.23;;
17404;SDS011;8820;54.604;18.226;2022-12-07T03:38:05;10.47;;;8.50;;
17404;SDS011;8820;54.604;18.226;2022-12-07T03:40:43;12.60;;;8.10;;
17404;SDS011;8820;54.604;18.226;2022-12-07T03:43:17;11.57;;;8.03;;
17404;SDS011;8820;54.604;18.226;2022-12-07T03:45:48;8.77;;;6.90;;
17404;SDS011;8820;54.604;18.226;2022-12-07T03:48:26;10.17;;;7.73;;
17404;SDS011;8820;54.604;18.226;2022-12-07T03:51:02;11.03;;;7.77;;
17404;SDS011;8820;54.604;18.226;2022-12-07T03:53:40;9.77;;;7.83;;
17404;SDS011;8820;54.604;18.226;2022-12-07T03:56:12;9.33;;;7.50;;
17404;SDS011;8820;54.604;18.226;2022-12-07T03:58:41;10.53;;;8.23;;
17404;SDS011;8820;54.604;18.226;2022-12-07T04:01:11;9.10;;;7.47;;
17404;SDS011;8820;54.604;18.226;2022-12-07T04:03:41;9.37;;;7.70;;
17404;SDS011;8820;54.604;18.226;2022-12-07T04:06:09;9.00;;;7.17;;
17404;SDS011;8820;54.604;18.226;2022-12-07T04:08:38;8.73;;;7.33;;
17404;SDS011;8820;54.604;18.226;2022-12-07T04:11:06;10.20;;;7.90;;
17404;SDS011;8820;54.604;18.226;2022-12-07T04:13:35;7.43;;;6.67;;
17404;SDS011;8820;54.604;18.226;2022-12-07T04:16:23;8.80;;;6.70;;
17404;SDS011;8820;54.604;18.226;2022-12-07T04:18:53;9.67;;;7.37;;
17404;SDS011;8820;54.604;18.226;2022-12-07T04:21:22;8.73;;;6.47;;
17404;SDS011;8820;54.604;18.226;2022-12-07T04:23:50;8.00;;;7.07;;
17404;SDS011;8820;54.604;18.226;2022-12-07T04:26:19;8.20;;;7.07;;
17404;SDS011;8820;54.604;18.226;2022-12-07T04:28:47;8.37;;;7.23;;
17404;SDS011;8820;54.604;18.226;2022-12-07T04:31:16;8.57;;;7.33;;
17404;SDS011;8820;54.604;18.226;2022-12-07T04:33:44;13.90;;;10.00;;
17404;SDS011;8820;54.604;18.226;2022-12-07T04:36:14;8.33;;;7.53;;
17404;SDS011;8820;54.604;18.226;2022-12-07T04:38:43;9.10;;;7.67;;
17404;SDS011;8820;54.604;18.226;2022-12-07T04:41:11;8.80;;;7.07;;
17404;SDS011;8820;54.604;18.226;2022-12-07T04:43:40;9.17;;;7.13;;
17404;SDS011;8820;54.604;18.226;2022-12-07T04:46:08;7.60;;;6.30;;
17404;SDS011;8820;54.604;18.226;2022-12-07T04:48:37;7.70;;;6.73;;
17404;SDS011;8820;54.604;18.226;2022-12-07T04:51:05;6.00;;;5.40;;
17404;SDS011;8820;54.604;18.226;2022-12-07T04:53:35;5.83;;;5.20;;
17404;SDS011;8820;54.604;18.226;2022-12-07T04:56:04;6.20;;;5.60;;
17404;SDS011;8820;54.604;18.226;2022-12-07T04:58:32;5.80;;;5.20;;
17404;SDS011;8820;54.604;18.226;2022-12-07T05:01:01;5.53;;;4.57;;
17404;SDS011;8820;54.604;18.226;2022-12-07T05:03:29;4.77;;;4.37;;
17404;SDS011;8820;54.604;18.226;2022-12-07T05:05:58;5.13;;;4.60;;
17404;SDS011;8820;54.604;18.226;2022-12-07T05:08:26;4.97;;;4.57;;
17404;SDS011;8820;54.604;18.226;2022-12-07T05:10:56;3.97;;;3.67;;
17404;SDS011;8820;54.604;18.226;2022-12-07T05:13:25;4.07;;;3.67;;
17404;SDS011;8820;54.604;18.226;2022-12-07T05:15:53;3.70;;;3.37;;
17404;SDS011;8820;54.604;18.226;2022-12-07T05:18:22;3.67;;;3.37;;
17404;SDS011;8820;54.604;18.226;2022-12-07T05:20:51;3.77;;;3.40;;
17404;SDS011;8820;54.604;18.226;2022-12-07T05:23:19;5.00;;;3.53;;
17404;SDS011;8820;54.604;18.226;2022-12-07T05:25:48;3.53;;;3.23;;
17404;SDS011;8820;54.604;18.226;2022-12-07T05:28:18;3.47;;;3.20;;
17404;SDS011;8820;54.604;18.226;2022-12-07T05:30:46;3.40;;;3.20;;
17404;SDS011;8820;54.604;18.226;2022-12-07T05:33:14;3.50;;;3.20;;
17404;SDS011;8820;54.604;18.226;2022-12-07T05:35:43;3.07;;;2.87;;
17404;SDS011;8820;54.604;18.226;2022-12-07T05:38:11;3.53;;;3.00;;
17404;SDS011;8820;54.604;18.226;2022-12-07T05:40:40;3.40;;;3.07;;
17404;SDS011;8820;54.604;18.226;2022-12-07T05:43:08;2.90;;;2.70;;
17404;SDS011;8820;54.604;18.226;2022-12-07T05:45:39;2.53;;;2.33;;
17404;SDS011;8820;54.604;18.226;2022-12-07T05:48:08;2.17;;;2.07;;
17404;SDS011;8820;54.604;18.226;2022-12-07T05:50:37;2.90;;;2.70;;
17404;SDS011;8820;54.604;18.226;2022-12-07T05:53:05;3.77;;;2.67;;
17404;SDS011;8820;54.604;18.226;2022-12-07T05:55:34;3.00;;;2.80;;
17404;SDS011;8820;54.604;18.226;2022-12-07T05:58:02;3.20;;;3.00;;
17404;SDS011;8820;54.604;18.226;2022-12-07T06:00:50;3.73;;;3.47;;
17404;SDS011;8820;54.604;18.226;2022-12-07T06:03:18;2.67;;;2.47;;
17404;SDS011;8820;54.604;18.226;2022-12-07T06:05:47;3.67;;;2.77;;
17404;SDS011;8820;54.604;18.226;2022-12-07T06:08:16;3.40;;;3.10;;
17404;SDS011;8820;54.604;18.226;2022-12-07T06:10:44;2.90;;;2.67;;
17404;SDS011;8820;54.604;18.226;2022-12-07T06:13:35;3.03;;;2.83;;
17404;SDS011;8820;54.604;18.226;2022-12-07T06:16:07;2.80;;;2.60;;
17404;SDS011;8820;54.604;18.226;2022-12-07T06:18:35;2.90;;;2.70;;
17404;SDS011;8820;54.604;18.226;2022-12-07T06:21:04;3.00;;;2.80;;
17404;SDS011;8820;54.604;18.226;2022-12-07T06:23:32;3.07;;;2.87;;
17404;SDS011;8820;54.604;18.226;2022-12-07T06:26:01;2.63;;;2.40;;
17404;SDS011;8820;54.604;18.226;2022-12-07T06:28:29;2.60;;;2.40;;
17404;SDS011;8820;54.604;18.226;2022-12-07T06:30:58;4.30;;;2.63;;
17404;SDS011;8820;54.604;18.226;2022-12-07T06:33:28;3.37;;;3.10;;
17404;SDS011;8820;54.604;18.226;2022-12-07T06:35:57;2.73;;;2.40;;
17404;SDS011;8820;54.604;18.226;2022-12-07T06:38:25;5.43;;;2.83;;
17404;SDS011;8820;54.604;18.226;2022-12-07T06:40:54;3.23;;;2.90;;
17404;SDS011;8820;54.604;18.226;2022-12-07T06:43:22;4.33;;;4.00;;
17404;SDS011;8820;54.604;18.226;2022-12-07T06:45:51;4.53;;;3.77;;
17404;SDS011;8820;54.604;18.226;2022-12-07T06:48:20;4.20;;;3.80;;
17404;SDS011;8820;54.604;18.226;2022-12-07T06:50:50;6.87;;;3.60;;
17404;SDS011;8820;54.604;18.226;2022-12-07T06:53:20;5.33;;;3.63;;
17404;SDS011;8820;54.604;18.226;2022-12-07T06:55:49;5.87;;;3.60;;
17404;SDS011;8820;54.604;18.226;2022-12-07T06:58:18;6.47;;;3.93;;
17404;SDS011;8820;54.604;18.226;2022-12-07T07:00:47;5.90;;;4.47;;
17404;SDS011;8820;54.604;18.226;2022-12-07T07:03:16;6.27;;;4.40;;
17404;SDS011;8820;54.604;18.226;2022-12-07T07:05:45;8.10;;;5.13;;
17404;SDS011;8820;54.604;18.226;2022-12-07T07:08:16;8.00;;;5.83;;
17404;SDS011;8820;54.604;18.226;2022-12-07T07:10:48;9.73;;;6.40;;
17404;SDS011;8820;54.604;18.226;2022-12-07T07:13:16;8.43;;;6.00;;
17404;SDS011;8820;54.604;18.226;2022-12-07T07:15:45;9.90;;;6.43;;
17404;SDS011;8820;54.604;18.226;2022-12-07T07:18:13;12.00;;;6.40;;
17404;SDS011;8820;54.604;18.226;2022-12-07T07:20:42;8.97;;;6.63;;
17404;SDS011;8820;54.604;18.226;2022-12-07T07:23:10;7.80;;;6.17;;
17404;SDS011;8820;54.604;18.226;2022-12-07T07:25:41;7.03;;;6.30;;
17404;SDS011;8820;54.604;18.226;2022-12-07T07:28:09;8.17;;;5.90;;
17404;SDS011;8820;54.604;18.226;2022-12-07T07:30:38;10.20;;;6.37;;
17404;SDS011;8820;54.604;18.226;2022-12-07T07:33:07;7.83;;;6.47;;
17404;SDS011;8820;54.604;18.226;2022-12-07T07:35:36;7.13;;;5.73;;
17404;SDS011;8820;54.604;18.226;2022-12-07T07:38:05;7.13;;;5.93;;
17404;SDS011;8820;54.604;18.226;2022-12-07T07:40:35;8.60;;;5.83;;
17404;SDS011;8820;54.604;18.226;2022-12-07T07:43:05;8.50;;;6.90;;
17404;SDS011;8820;54.604;18.226;2022-12-07T07:45:33;8.90;;;5.90;;
17404;SDS011;8820;54.604;18.226;2022-12-07T07:48:02;8.40;;;5.53;;
17404;SDS011;8820;54.604;18.226;2022-12-07T07:50:30;9.90;;;5.90;;
17404;SDS011;8820;54.604;18.226;2022-12-07T07:52:59;6.50;;;5.90;;
17404;SDS011;8820;54.604;18.226;2022-12-07T07:55:27;9.50;;;6.37;;
17404;SDS011;8820;54.604;18.226;2022-12-07T07:57:56;7.10;;;6.20;;
17404;SDS011;8820;54.604;18.226;2022-12-07T08:00:26;7.60;;;6.80;;
17404;SDS011;8820;54.604;18.226;2022-12-07T08:02:54;6.53;;;5.40;;
17404;SDS011;8820;54.604;18.226;2022-12-07T08:05:23;7.40;;;6.00;;
17404;SDS011;8820;54.604;18.226;2022-12-07T08:07:51;8.10;;;6.17;;
17404;SDS011;8820;54.604;18.226;2022-12-07T08:10:20;7.13;;;6.30;;
17404;SDS011;8820;54.604;18.226;2022-12-07T08:12:48;13.07;;;6.50;;
17404;SDS011;8820;54.604;18.226;2022-12-07T08:15:36;7.27;;;5.67;;
17404;SDS011;8820;54.604;18.226;2022-12-07T08:18:06;18.90;;;11.60;;
17404;SDS011;8820;54.604;18.226;2022-12-07T08:20:35;7.33;;;5.97;;
17404;SDS011;8820;54.604;18.226;2022-12-07T08:23:05;9.33;;;7.63;;
17404;SDS011;8820;54.604;18.226;2022-12-07T08:25:35;10.63;;;5.53;;
17404;SDS011;8820;54.604;18.226;2022-12-07T08:28:03;7.33;;;5.30;;
17404;SDS011;8820;54.604;18.226;2022-12-07T08:30:32;6.73;;;5.57;;
17404;SDS011;8820;54.604;18.226;2022-12-07T08:33:02;10.77;;;7.33;;
17404;SDS011;8820;54.604;18.226;2022-12-07T08:35:32;8.53;;;6.83;;
17404;SDS011;8820;54.604;18.226;2022-12-07T08:38:01;6.70;;;5.73;;
17404;SDS011;8820;54.604;18.226;2022-12-07T08:40:30;10.30;;;7.73;;
17404;SDS011;8820;54.604;18.226;2022-12-07T08:42:58;8.17;;;6.67;;
17404;SDS011;8820;54.604;18.226;2022-12-07T08:45:27;7.43;;;6.40;;
17404;SDS011;8820;54.604;18.226;2022-12-07T08:48:00;9.30;;;6.80;;
17404;SDS011;8820;54.604;18.226;2022-12-07T08:50:35;7.87;;;6.33;;
17404;SDS011;8820;54.604;18.226;2022-12-07T08:53:08;7.67;;;6.27;;
17404;SDS011;8820;54.604;18.226;2022-12-07T08:55:37;6.93;;;5.83;;
17404;SDS011;8820;54.604;18.226;2022-12-07T08:58:05;8.83;;;6.03;;
17404;SDS011;8820;54.604;18.226;2022-12-07T09:00:34;8.23;;;5.97;;
17404;SDS011;8820;54.604;18.226;2022-12-07T09:03:02;9.10;;;6.63;;
17404;SDS011;8820;54.604;18.226;2022-12-07T09:05:32;6.10;;;4.93;;
17404;SDS011;8820;54.604;18.226;2022-12-07T09:08:01;5.80;;;5.20;;
17404;SDS011;8820;54.604;18.226;2022-12-07T09:10:30;8.37;;;6.30;;
17404;SDS011;8820;54.604;18.226;2022-12-07T09:12:58;7.37;;;5.97;;
17404;SDS011;8820;54.604;18.226;2022-12-07T09:15:27;7.20;;;6.10;;
17404;SDS011;8820;54.604;18.226;2022-12-07T09:17:56;9.80;;;6.47;;
17404;SDS011;8820;54.604;18.226;2022-12-07T09:20:26;7.67;;;5.97;;
17404;SDS011;8820;54.604;18.226;2022-12-07T09:22:54;7.60;;;6.77;;
17404;SDS011;8820;54.604;18.226;2022-12-07T09:25:23;6.63;;;6.03;;
17404;SDS011;8820;54.604;18.226;2022-12-07T09:27:55;6.90;;;5.97;;
17404;SDS011;8820;54.604;18.226;2022-12-07T09:30:24;7.30;;;6.50;;
17404;SDS011;8820;54.604;18.226;2022-12-07T09:32:53;7.20;;;5.80;;
17404;SDS011;8820;54.604;18.226;2022-12-07T09:35:23;8.00;;;6.40;;
17404;SDS011;8820;54.604;18.226;2022-12-07T09:37:53;8.47;;;7.57;;
17404;SDS011;8820;54.604;18.226;2022-12-07T09:40:22;8.57;;;6.53;;
17404;SDS011;8820;54.604;18.226;2022-12-07T09:42:52;6.90;;;6.17;;
17404;SDS011;8820;54.604;18.226;2022-12-07T09:45:23;7.50;;;6.30;;
17404;SDS011;8820;54.604;18.226;2022-12-07T09:47:54;8.63;;;6.10;;
17404;SDS011;8820;54.604;18.226;2022-12-07T09:50:23;7.80;;;5.47;;
17404;SDS011;8820;54.604;18.226;2022-12-07T09:52:56;6.00;;;5.37;;
17404;SDS011;8820;54.604;18.226;2022-12-07T09:55:41;7.53;;;6.60;;
17404;SDS011;8820;54.604;18.226;2022-12-07T09:58:12;6.90;;;6.20;;
17404;SDS011;8820;54.604;18.226;2022-12-07T10:00:47;7.27;;;6.57;;
17404;SDS011;8820;54.604;18.226;2022-12-07T10:03:16;10.93;;;7.30;;
17404;SDS011;8820;54.604;18.226;2022-12-07T10:05:46;9.13;;;7.60;;
17404;SDS011;8820;54.604;18.226;2022-12-07T10:08:18;8.73;;;6.83;;
17404;SDS011;8820;54.604;18.226;2022-12-07T10:10:49;9.47;;;6.70;;
17404;SDS011;8820;54.604;18.226;2022-12-07T10:13:19;9.07;;;5.80;;
17404;SDS011;8820;54.604;18.226;2022-12-07T10:15:50;7.87;;;6.63;;
17404;SDS011;8820;54.604;18.226;2022-12-07T10:18:27;8.30;;;7.33;;
17404;SDS011;8820;54.604;18.226;2022-12-07T10:21:01;9.77;;;6.60;;
17404;SDS011;8820;54.604;18.226;2022-12-07T10:23:39;8.13;;;6.60;;
17404;SDS011;8820;54.604;18.226;2022-12-07T10:26:19;6.27;;;5.67;;
17404;SDS011;8820;54.604;18.226;2022-12-07T10:28:53;6.73;;;5.63;;
17404;SDS011;8820;54.604;18.226;2022-12-07T10:31:23;9.80;;;6.60;;
17404;SDS011;8820;54.604;18.226;2022-12-07T10:33:52;9.80;;;6.17;;
17404;SDS011;8820;54.604;18.226;2022-12-07T10:36:24;7.60;;;6.80;;
17404;SDS011;8820;54.604;18.226;2022-12-07T10:38:58;7.20;;;5.87;;
17404;SDS011;8820;54.604;18.226;2022-12-07T10:41:28;8.13;;;6.60;;
17404;SDS011;8820;54.604;18.226;2022-12-07T10:43:57;9.40;;;6.40;;
17404;SDS011;8820;54.604;18.226;2022-12-07T10:46:29;7.50;;;6.40;;
17404;SDS011;8820;54.604;18.226;2022-12-07T10:52:13;8.90;;;7.03;;
17404;SDS011;8820;54.604;18.226;2022-12-07T10:54:55;6.83;;;5.77;;
17404;SDS011;8820;54.604;18.226;2022-12-07T10:57:38;7.07;;;6.37;;
17404;SDS011;8820;54.604;18.226;2022-12-07T11:00:16;8.53;;;6.60;;
17404;SDS011;8820;54.604;18.226;2022-12-07T11:03:03;7.03;;;6.10;;
17404;SDS011;8820;54.604;18.226;2022-12-07T11:05:49;7.43;;;6.73;;
17404;SDS011;8820;54.604;18.226;2022-12-07T11:08:31;7.27;;;5.50;;
17404;SDS011;8820;54.604;18.226;2022-12-07T11:11:13;5.80;;;5.20;;
17404;SDS011;8820;54.604;18.226;2022-12-07T11:13:48;7.20;;;6.47;;
17404;SDS011;8820;54.604;18.226;2022-12-07T11:16:26;13.17;;;9.27;;
17404;SDS011;8820;54.604;18.226;2022-12-07T11:19:15;7.70;;;6.60;;
17404;SDS011;8820;54.604;18.226;2022-12-07T11:21:55;7.07;;;5.77;;
17404;SDS011;8820;54.604;18.226;2022-12-07T11:24:27;7.10;;;5.77;;
17404;SDS011;8820;54.604;18.226;2022-12-07T11:27:07;9.57;;;7.40;;
17404;SDS011;8820;54.604;18.226;2022-12-07T11:29:53;7.20;;;6.50;;
17404;SDS011;8820;54.604;18.226;2022-12-07T11:32:35;10.37;;;6.77;;
17404;SDS011;8820;54.604;18.226;2022-12-07T11:35:16;9.50;;;7.07;;
17404;SDS011;8820;54.604;18.226;2022-12-07T11:37:57;7.83;;;6.40;;
17404;SDS011;8820;54.604;18.226;2022-12-07T11:40:30;6.20;;;5.60;;
17404;SDS011;8820;54.604;18.226;2022-12-07T11:43:05;8.40;;;6.67;;
17404;SDS011;8820;54.604;18.226;2022-12-07T11:45:41;7.03;;;6.43;;
17404;SDS011;8820;54.604;18.226;2022-12-07T11:48:14;8.70;;;6.33;;
17404;SDS011;8820;54.604;18.226;2022-12-07T11:50:47;7.23;;;6.10;;
17404;SDS011;8820;54.604;18.226;2022-12-07T11:53:20;6.73;;;5.97;;
17404;SDS011;8820;54.604;18.226;2022-12-07T11:55:54;12.63;;;8.07;;
17404;SDS011;8820;54.604;18.226;2022-12-07T12:04:30;7.43;;;6.70;;
17404;SDS011;8820;54.604;18.226;2022-12-07T12:07:05;9.83;;;6.93;;
17404;SDS011;8820;54.604;18.226;2022-12-07T12:09:55;7.57;;;5.93;;
17404;SDS011;8820;54.604;18.226;2022-12-07T12:12:37;6.53;;;5.90;;
17404;SDS011;8820;54.604;18.226;2022-12-07T12:15:41;8.13;;;7.07;;
17404;SDS011;8820;54.604;18.226;2022-12-07T12:18:28;7.67;;;6.67;;
17404;SDS011;8820;54.604;18.226;2022-12-07T12:21:07;9.40;;;6.23;;
17404;SDS011;8820;54.604;18.226;2022-12-07T12:23:39;8.93;;;7.33;;
17404;SDS011;8820;54.604;18.226;2022-12-07T12:26:14;8.13;;;6.73;;
17404;SDS011;8820;54.604;18.226;2022-12-07T12:28:53;7.57;;;5.83;;
17404;SDS011;8820;54.604;18.226;2022-12-07T12:31:32;8.20;;;6.47;;
17404;SDS011;8820;54.604;18.226;2022-12-07T12:36:59;6.27;;;5.50;;
17404;SDS011;8820;54.604;18.226;2022-12-07T12:39:28;7.33;;;4.53;;
17404;SDS011;8820;54.604;18.226;2022-12-07T12:41:57;5.73;;;5.13;;
17404;SDS011;8820;54.604;18.226;2022-12-07T12:47:54;5.90;;;5.27;;
17404;SDS011;8820;54.604;18.226;2022-12-07T12:50:25;5.63;;;4.83;;
17404;SDS011;8820;54.604;18.226;2022-12-07T13:02:08;8.57;;;4.80;;
17404;SDS011;8820;54.604;18.226;2022-12-07T13:04:55;6.20;;;5.40;;
17404;SDS011;8820;54.604;18.226;2022-12-07T13:10:34;6.90;;;5.73;;
17404;SDS011;8820;54.604;18.226;2022-12-07T13:25:33;9.87;;;6.20;;
17404;SDS011;8820;54.604;18.226;2022-12-07T13:28:09;6.50;;;5.23;;
17404;SDS011;8820;54.604;18.226;2022-12-07T13:30:45;7.17;;;5.83;;
17404;SDS011;8820;54.604;18.226;2022-12-07T13:33:25;8.00;;;5.83;;
17404;SDS011;8820;54.604;18.226;2022-12-07T13:35:56;9.37;;;5.63;;
17404;SDS011;8820;54.604;18.226;2022-12-07T13:38:29;10.70;;;7.03;;
17404;SDS011;8820;54.604;18.226;2022-12-07T13:41:10;17.73;;;11.40;;
17404;SDS011;8820;54.604;18.226;2022-12-07T13:43:46;7.73;;;5.53;;
17404;SDS011;8820;54.604;18.226;2022-12-07T13:46:18;6.57;;;5.23;;
17404;SDS011;8820;54.604;18.226;2022-12-07T13:48:52;9.73;;;6.43;;
17404;SDS011;8820;54.604;18.226;2022-12-07T13:51:22;7.27;;;5.87;;
17404;SDS011;8820;54.604;18.226;2022-12-07T13:53:55;11.13;;;6.77;;
17404;SDS011;8820;54.604;18.226;2022-12-07T13:56:28;10.03;;;6.60;;
17404;SDS011;8820;54.604;18.226;2022-12-07T13:59:00;8.70;;;5.97;;
17404;SDS011;8820;54.604;18.226;2022-12-07T14:01:30;8.40;;;6.53;;
17404;SDS011;8820;54.604;18.226;2022-12-07T14:06:59;7.63;;;5.70;;
17404;SDS011;8820;54.604;18.226;2022-12-07T14:09:30;10.17;;;6.53;;
17404;SDS011;8820;54.604;18.226;2022-12-07T14:11:59;8.27;;;5.87;;
17404;SDS011;8820;54.604;18.226;2022-12-07T14:14:34;8.67;;;6.13;;
17404;SDS011;8820;54.604;18.226;2022-12-07T14:17:11;9.00;;;5.87;;
17404;SDS011;8820;54.604;18.226;2022-12-07T14:19:45;8.17;;;5.80;;
17404;SDS011;8820;54.604;18.226;2022-12-07T14:22:26;8.40;;;6.37;;
17404;SDS011;8820;54.604;18.226;2022-12-07T14:27:55;8.70;;;6.90;;
17404;SDS011;8820;54.604;18.226;2022-12-07T14:30:26;5.93;;;4.83;;
17404;SDS011;8820;54.604;18.226;2022-12-07T14:32:57;6.67;;;5.27;;
17404;SDS011;8820;54.604;18.226;2022-12-07T14:35:27;7.93;;;5.67;;
17404;SDS011;8820;54.604;18.226;2022-12-07T14:37:56;8.20;;;5.60;;
17404;SDS011;8820;54.604;18.226;2022-12-07T14:40:26;7.90;;;5.93;;
17404;SDS011;8820;54.604;18.226;2022-12-07T14:42:57;6.50;;;5.67;;
17404;SDS011;8820;54.604;18.226;2022-12-07T14:45:28;10.63;;;5.67;;
17404;SDS011;8820;54.604;18.226;2022-12-07T14:47:57;10.37;;;5.30;;
17404;SDS011;8820;54.604;18.226;2022-12-07T14:50:49;11.30;;;7.37;;
17404;SDS011;8820;54.604;18.226;2022-12-07T14:53:40;6.77;;;5.33;;
17404;SDS011;8820;54.604;18.226;2022-12-07T14:56:12;6.53;;;5.27;;
17404;SDS011;8820;54.604;18.226;2022-12-07T14:58:41;5.90;;;5.30;;
17404;SDS011;8820;54.604;18.226;2022-12-07T15:01:09;5.40;;;4.90;;
17404;SDS011;8820;54.604;18.226;2022-12-07T15:03:38;12.13;;;6.47;;
17404;SDS011;8820;54.604;18.226;2022-12-07T15:06:06;16.33;;;6.23;;
17404;SDS011;8820;54.604;18.226;2022-12-07T15:08:35;9.93;;;5.57;;
17404;SDS011;8820;54.604;18.226;2022-12-07T15:11:04;11.37;;;5.40;;
17404;SDS011;8820;54.604;18.226;2022-12-07T15:13:34;6.53;;;5.07;;
17404;SDS011;8820;54.604;18.226;2022-12-07T15:16:29;10.70;;;5.50;;
17404;SDS011;8820;54.604;18.226;2022-12-07T15:19:18;11.87;;;7.57;;
17404;SDS011;8820;54.604;18.226;2022-12-07T15:21:54;9.77;;;6.03;;
17404;SDS011;8820;54.604;18.226;2022-12-07T15:24:23;6.50;;;5.43;;
17404;SDS011;8820;54.604;18.226;2022-12-07T15:26:52;8.27;;;5.83;;
17404;SDS011;8820;54.604;18.226;2022-12-07T15:29:22;6.63;;;5.27;;
17404;SDS011;8820;54.604;18.226;2022-12-07T15:31:51;6.67;;;5.57;;
17404;SDS011;8820;54.604;18.226;2022-12-07T15:34:22;9.33;;;6.00;;
17404;SDS011;8820;54.604;18.226;2022-12-07T15:36:54;8.30;;;5.43;;
17404;SDS011;8820;54.604;18.226;2022-12-07T15:39:22;7.40;;;5.57;;
17404;SDS011;8820;54.604;18.226;2022-12-07T15:41:51;9.53;;;6.67;;
17404;SDS011;8820;54.604;18.226;2022-12-07T15:44:21;6.30;;;5.37;;
17404;SDS011;8820;54.604;18.226;2022-12-07T15:47:07;9.80;;;6.53;;
17404;SDS011;8820;54.604;18.226;2022-12-07T15:49:36;10.03;;;6.50;;
17404;SDS011;8820;54.604;18.226;2022-12-07T15:52:05;9.00;;;6.47;;
17404;SDS011;8820;54.604;18.226;2022-12-07T15:54:33;8.47;;;6.30;;
17404;SDS011;8820;54.604;18.226;2022-12-07T15:57:03;8.87;;;5.93;;
17404;SDS011;8820;54.604;18.226;2022-12-07T15:59:33;9.10;;;7.03;;